Time;durP1;ratioP1;P1;durP2;ratioP2;P2;SDS_P1;SDS_P2;PMS_P1;PMS_P2;Temp;Humidity;BMP_temperature;BMP_pressure;BME280_temperature;BME280_humidity;BME280_pressure;Samples;Min_cycle;Max_cycle;Signal;HPM_P1;HPM_P2
2022/08/18 00:02:21;;;;;;;7.80;6.45;;;;;;;;;;2611549;53;21129;-85
2022/08/18 00:04:48;;;;;;;7.47;6.30;;;;;;;;;;2612354;53;21102;-85
2022/08/18 00:07:17;;;;;;;7.85;6.80;;;;;;;;;;2360871;57;21059;-85
2022/08/18 00:09:45;;;;;;;7.78;6.20;;;;;;;;;;2612357;53;21145;-84
2022/08/18 00:12:14;;;;;;;7.72;6.25;;;;;;;;;;2361649;57;21046;-85
2022/08/18 00:14:41;;;;;;;9.80;7.00;;;;;;;;;;2611804;52;21063;-85
2022/08/18 00:17:09;;;;;;;8.00;6.90;;;;;;;;;;2361350;57;21638;-85
2022/08/18 00:19:36;;;;;;;9.27;6.93;;;;;;;;;;2361928;57;21066;-85
2022/08/18 00:22:03;;;;;;;9.65;7.25;;;;;;;;;;2362163;57;21055;-85
2022/08/18 00:24:30;;;;;;;7.55;6.60;;;;;;;;;;2611883;53;21063;-85
2022/08/18 00:26:57;;;;;;;8.57;7.60;;;;;;;;;;2361664;57;21075;-84
2022/08/18 00:29:24;;;;;;;8.45;6.95;;;;;;;;;;2361961;57;21102;-85
2022/08/18 00:31:51;;;;;;;8.73;7.82;;;;;;;;;;2611859;53;21059;-84
2022/08/18 00:34:18;;;;;;;10.32;8.00;;;;;;;;;;2610791;53;21078;-84
2022/08/18 00:36:45;;;;;;;9.75;7.50;;;;;;;;;;2361567;57;21075;-84
2022/08/18 00:39:12;;;;;;;10.45;7.82;;;;;;;;;;2612129;53;21102;-84
2022/08/18 00:41:39;;;;;;;9.25;8.02;;;;;;;;;;2362661;57;21090;-84
2022/08/18 00:44:07;;;;;;;9.68;8.63;;;;;;;;;;2360951;57;21087;-84
2022/08/18 00:46:35;;;;;;;9.73;7.60;;;;;;;;;;2361149;57;21090;-84
2022/08/18 00:49:03;;;;;;;9.70;7.90;;;;;;;;;;2361910;57;21681;-84
2022/08/18 00:51:39;;;;;;;15.48;8.88;;;;;;;;;;2611716;53;21050;-85
2022/08/18 00:54:08;;;;;;;11.27;8.85;;;;;;;;;;2611738;53;21035;-85
2022/08/18 00:56:38;;;;;;;11.50;9.07;;;;;;;;;;2361269;57;21137;-85
2022/08/18 00:59:07;;;;;;;10.43;9.32;;;;;;;;;;2611030;53;21150;-84
2022/08/18 01:01:36;;;;;;;14.98;10.25;;;;;;;;;;2361645;57;21702;-84
2022/08/18 01:04:06;;;;;;;11.20;9.90;;;;;;;;;;2361686;57;21047;-85
2022/08/18 01:06:38;;;;;;;10.02;8.90;;;;;;;;;;2361501;57;21043;-84
2022/08/18 01:09:05;;;;;;;11.52;9.85;;;;;;;;;;2362270;57;21145;-84
2022/08/18 01:11:32;;;;;;;11.05;9.68;;;;;;;;;;2361854;57;21137;-85
2022/08/18 01:13:59;;;;;;;13.25;10.25;;;;;;;;;;2611213;53;21071;-84
2022/08/18 01:22:06;;;;;;;16.62;10.35;;;;;;;;;;2361164;57;20986;-85
2022/08/18 01:27:21;;;;;;;12.10;10.52;;;;;;;;;;2361685;57;21589;-85
2022/08/18 01:29:49;;;;;;;12.93;10.35;;;;;;;;;;2611131;53;21059;-84
2022/08/18 01:32:18;;;;;;;13.52;10.63;;;;;;;;;;2362098;57;21578;-85
2022/08/18 01:34:47;;;;;;;12.13;9.95;;;;;;;;;;2361843;57;21233;-85
2022/08/18 01:37:14;;;;;;;11.82;10.63;;;;;;;;;;2611753;53;21054;-85
2022/08/18 01:39:41;;;;;;;15.00;11.55;;;;;;;;;;2611111;53;21055;-85
2022/08/18 01:42:08;;;;;;;14.07;10.10;;;;;;;;;;2611598;53;21058;-85
2022/08/18 01:44:36;;;;;;;10.07;9.07;;;;;;;;;;2612252;53;21547;-85
2022/08/18 01:47:03;;;;;;;14.18;9.50;;;;;;;;;;2362937;57;21697;-85
2022/08/18 01:49:30;;;;;;;12.95;9.48;;;;;;;;;;2362848;57;21111;-85
2022/08/18 01:51:57;;;;;;;11.82;9.43;;;;;;;;;;2363684;57;21102;-85
2022/08/18 01:54:28;;;;;;;14.50;8.48;;;;;;;;;;2362720;57;21054;-86
2022/08/18 01:56:56;;;;;;;8.88;7.93;;;;;;;;;;2362904;57;21074;-85
2022/08/18 01:59:23;;;;;;;9.52;8.07;;;;;;;;;;2612720;53;21086;-86
2022/08/18 02:01:54;;;;;;;9.07;7.47;;;;;;;;;;2363455;57;21098;-86
2022/08/18 02:04:23;;;;;;;9.05;8.13;;;;;;;;;;2363410;57;21146;-86
2022/08/18 02:06:51;;;;;;;10.93;8.43;;;;;;;;;;2613033;53;21097;-86
2022/08/18 02:09:18;;;;;;;8.55;7.75;;;;;;;;;;2612784;52;21365;-85
2022/08/18 02:11:45;;;;;;;8.38;7.12;;;;;;;;;;2613819;53;21638;-86
2022/08/18 02:14:13;;;;;;;10.48;7.62;;;;;;;;;;2613162;53;21110;-85
2022/08/18 02:16:40;;;;;;;11.90;8.38;;;;;;;;;;2611654;53;21599;-85
2022/08/18 02:19:07;;;;;;;8.68;7.30;;;;;;;;;;2612640;53;21102;-85
2022/08/18 02:21:34;;;;;;;9.27;7.60;;;;;;;;;;2363211;57;21119;-86
2022/08/18 02:24:01;;;;;;;8.52;7.45;;;;;;;;;;2612604;53;21051;-85
2022/08/18 02:26:28;;;;;;;7.90;7.10;;;;;;;;;;2363282;57;21519;-86
2022/08/18 02:28:55;;;;;;;9.50;7.90;;;;;;;;;;2613313;53;21533;-85
2022/08/18 02:31:23;;;;;;;8.98;8.07;;;;;;;;;;2613455;53;21047;-85
2022/08/18 02:33:51;;;;;;;9.27;7.60;;;;;;;;;;2362095;57;21047;-85
2022/08/18 02:36:18;;;;;;;8.73;7.82;;;;;;;;;;2361809;57;21078;-86
2022/08/18 02:38:45;;;;;;;9.15;8.25;;;;;;;;;;2611999;53;21050;-86
2022/08/18 02:41:13;;;;;;;8.80;7.90;;;;;;;;;;2362628;57;21046;-86
2022/08/18 02:43:41;;;;;;;9.88;8.20;;;;;;;;;;2362673;57;21067;-86
2022/08/18 02:46:08;;;;;;;10.88;8.38;;;;;;;;;;2362037;57;22364;-86
2022/08/18 02:48:35;;;;;;;13.98;8.82;;;;;;;;;;2610814;53;21117;-85
2022/08/18 02:51:03;;;;;;;12.82;10.07;;;;;;;;;;2610882;53;21059;-85
2022/08/18 02:53:31;;;;;;;11.07;9.35;;;;;;;;;;2361553;57;21704;-86
2022/08/18 02:56:14;;;;;;;12.50;8.88;;;;;;;;;;2612510;53;21133;-86
2022/08/18 02:58:41;;;;;;;11.35;9.13;;;;;;;;;;2363224;57;21102;-85
2022/08/18 03:01:08;;;;;;;10.43;9.23;;;;;;;;;;2612678;52;21833;-86
2022/08/18 03:03:35;;;;;;;11.57;10.30;;;;;;;;;;2612662;53;21142;-86
2022/08/18 03:06:02;;;;;;;10.73;8.88;;;;;;;;;;2362154;57;21062;-86
2022/08/18 03:08:29;;;;;;;9.68;8.68;;;;;;;;;;2363193;57;21114;-86
2022/08/18 03:10:56;;;;;;;12.10;8.52;;;;;;;;;;2612706;53;21113;-86
2022/08/18 03:13:23;;;;;;;10.55;8.93;;;;;;;;;;2612045;53;21744;-86
2022/08/18 03:15:50;;;;;;;12.45;8.98;;;;;;;;;;2611574;53;21058;-86
2022/08/18 03:18:17;;;;;;;9.65;8.75;;;;;;;;;;2362792;57;21090;-86
2022/08/18 03:20:44;;;;;;;11.25;8.93;;;;;;;;;;2612010;53;21157;-86
2022/08/18 03:23:12;;;;;;;10.68;9.57;;;;;;;;;;2612629;53;21027;-86
2022/08/18 03:25:43;;;;;;;10.85;9.70;;;;;;;;;;2611743;53;21697;-86
2022/08/18 03:28:11;;;;;;;13.77;9.27;;;;;;;;;;2612157;53;21417;-85
2022/08/18 03:30:38;;;;;;;14.93;10.02;;;;;;;;;;2362618;57;21154;-87
2022/08/18 03:33:05;;;;;;;13.35;9.50;;;;;;;;;;2612815;53;21051;-87
2022/08/18 03:35:34;;;;;;;10.57;9.52;;;;;;;;;;2612539;53;21130;-86
2022/08/18 03:38:01;;;;;;;11.35;9.07;;;;;;;;;;2364130;57;21050;-87
2022/08/18 03:40:28;;;;;;;11.32;8.48;;;;;;;;;;2613868;53;21547;-87
2022/08/18 03:42:55;;;;;;;10.88;9.35;;;;;;;;;;2613845;52;21098;-86
2022/08/18 03:45:23;;;;;;;12.35;9.82;;;;;;;;;;2613117;52;21050;-87
2022/08/18 03:47:51;;;;;;;14.55;9.25;;;;;;;;;;2614066;53;21146;-87
2022/08/18 03:50:18;;;;;;;9.40;7.60;;;;;;;;;;2612406;53;21098;-88
2022/08/18 03:52:47;;;;;;;9.80;8.80;;;;;;;;;;2364523;57;21597;-88
2022/08/18 03:55:14;;;;;;;10.02;9.02;;;;;;;;;;2613584;53;22149;-86
2022/08/18 03:57:42;;;;;;;12.52;9.63;;;;;;;;;;2364451;57;21038;-87
2022/08/18 04:00:10;;;;;;;11.65;10.30;;;;;;;;;;2614738;53;21146;-88
2022/08/18 04:02:37;;;;;;;11.05;9.95;;;;;;;;;;2364791;57;21603;-87
2022/08/18 04:05:06;;;;;;;13.32;10.13;;;;;;;;;;2363894;57;21115;-87
2022/08/18 04:07:33;;;;;;;9.70;8.70;;;;;;;;;;2362945;57;21043;-86
2022/08/18 04:10:00;;;;;;;9.90;8.40;;;;;;;;;;2366611;57;21050;-88
2022/08/18 04:12:27;;;;;;;14.52;10.23;;;;;;;;;;2615241;52;21062;-88
2022/08/18 04:14:54;;;;;;;10.85;9.52;;;;;;;;;;2614934;53;22370;-88
2022/08/18 04:17:23;;;;;;;13.95;10.32;;;;;;;;;;2613682;53;21089;-88
2022/08/18 04:19:50;;;;;;;11.45;9.68;;;;;;;;;;2615624;53;21066;-88
2022/08/18 04:22:18;;;;;;;12.40;9.60;;;;;;;;;;2363825;57;21154;-87
2022/08/18 04:24:45;;;;;;;14.32;10.15;;;;;;;;;;2612851;52;21073;-88
2022/08/18 04:27:12;;;;;;;10.43;9.13;;;;;;;;;;2362317;57;21053;-88
2022/08/18 04:29:39;;;;;;;10.50;9.30;;;;;;;;;;2611711;53;21075;-87
2022/08/18 04:32:07;;;;;;;13.35;10.30;;;;;;;;;;2611356;53;21117;-86
2022/08/18 04:34:34;;;;;;;11.02;9.70;;;;;;;;;;2363871;57;21070;-88
2022/08/18 04:37:01;;;;;;;11.07;9.73;;;;;;;;;;2362210;57;21066;-88
2022/08/18 04:39:29;;;;;;;8.75;7.85;;;;;;;;;;2364263;57;21098;-87
2022/08/18 04:41:56;;;;;;;12.98;10.15;;;;;;;;;;2612010;52;21566;-80
2022/08/18 04:44:23;;;;;;;13.75;9.40;;;;;;;;;;2363199;57;21090;-87
2022/08/18 04:46:52;;;;;;;11.27;9.30;;;;;;;;;;2612971;53;21062;-88
2022/08/18 04:49:20;;;;;;;11.80;10.10;;;;;;;;;;2363473;57;21217;-87
2022/08/18 04:53:43;;;;;;;12.95;10.13;;;;;;;;;;2613115;53;21035;-87
2022/08/18 04:56:13;;;;;;;12.02;10.02;;;;;;;;;;2611735;53;21090;-88
2022/08/18 04:58:40;;;;;;;10.48;9.48;;;;;;;;;;2612672;53;21166;-87
2022/08/18 05:01:08;;;;;;;13.18;10.02;;;;;;;;;;2613032;53;21038;-87
2022/08/18 05:03:37;;;;;;;10.35;9.15;;;;;;;;;;2613368;53;21063;-88
2022/08/18 05:06:06;;;;;;;9.73;8.80;;;;;;;;;;2363958;57;21043;-88
2022/08/18 05:08:33;;;;;;;13.00;10.23;;;;;;;;;;2613162;53;21547;-88
2022/08/18 05:11:00;;;;;;;10.57;8.85;;;;;;;;;;2364193;57;21285;-88
2022/08/18 05:13:27;;;;;;;8.90;8.00;;;;;;;;;;2363744;57;22345;-88
2022/08/18 05:15:55;;;;;;;12.32;9.35;;;;;;;;;;2363483;57;21110;-88
2022/08/18 05:18:23;;;;;;;11.52;9.68;;;;;;;;;;2613227;53;21130;-77
2022/08/18 05:20:51;;;;;;;11.93;10.30;;;;;;;;;;2361509;57;21131;-77
2022/08/18 05:23:18;;;;;;;11.48;9.80;;;;;;;;;;2362826;57;21074;-83
2022/08/18 05:25:45;;;;;;;11.88;10.68;;;;;;;;;;2614538;53;21591;-89
2022/08/18 05:28:13;;;;;;;9.82;7.90;;;;;;;;;;2367250;57;21114;-89
2022/08/18 05:30:40;;;;;;;11.73;9.43;;;;;;;;;;2616195;53;21119;-88
2022/08/18 05:33:09;;;;;;;15.35;10.15;;;;;;;;;;2614597;53;21031;-89
2022/08/18 05:35:38;;;;;;;14.48;10.20;;;;;;;;;;2366803;57;21063;-89
2022/08/18 05:38:14;;;;;;;10.27;9.10;;;;;;;;;;2615552;52;21115;-88
2022/08/18 05:40:41;;;;;;;11.32;9.88;;;;;;;;;;2615736;53;21051;-89
2022/08/18 05:43:10;;;;;;;17.23;10.27;;;;;;;;;;2366781;57;21133;-88
2022/08/18 05:45:38;;;;;;;12.65;10.15;;;;;;;;;;2615236;53;21162;-88
2022/08/18 05:48:05;;;;;;;16.60;11.95;;;;;;;;;;2364966;57;21146;-88
2022/08/18 05:50:35;;;;;;;16.20;10.68;;;;;;;;;;2365178;57;21062;-89
2022/08/18 05:53:06;;;;;;;21.20;12.07;;;;;;;;;;2614053;53;21059;-88
2022/08/18 05:58:23;;;;;;;14.93;10.57;;;;;;;;;;2372872;54;21023;-82
2022/08/18 06:00:52;;;;;;;13.30;10.05;;;;;;;;;;2271040;59;21696;-82
2022/08/18 06:03:21;;;;;;;13.90;11.00;;;;;;;;;;2501535;55;21084;-82
2022/08/18 06:05:52;;;;;;;13.25;10.07;;;;;;;;;;2501174;55;22345;-82
2022/08/18 06:08:21;;;;;;;10.35;9.25;;;;;;;;;;2275414;58;21104;-82
2022/08/18 06:10:49;;;;;;;14.68;10.50;;;;;;;;;;2310742;58;21112;-83
2022/08/18 06:13:18;;;;;;;12.52;11.00;;;;;;;;;;2310301;58;21123;-82
2022/08/18 06:15:48;;;;;;;12.68;10.27;;;;;;;;;;2309985;58;21091;-82
2022/08/18 06:18:31;;;;;;;13.98;10.02;;;;;;;;;;2310095;58;21064;-82
2022/08/18 06:21:06;;;;;;;14.50;11.20;;;;;;;;;;2310800;58;21103;-82
2022/08/18 06:23:35;;;;;;;13.90;11.55;;;;;;;;;;2310556;58;21350;-82
2022/08/18 06:26:09;;;;;;;12.85;10.52;;;;;;;;;;2548531;54;21624;-82
2022/08/18 06:28:43;;;;;;;12.32;11.00;;;;;;;;;;2310234;58;21039;-82
2022/08/18 06:31:14;;;;;;;12.73;10.45;;;;;;;;;;2310207;58;21131;-82
2022/08/18 06:33:45;;;;;;;12.80;11.05;;;;;;;;;;2310064;58;21079;-82
2022/08/18 06:36:18;;;;;;;12.60;10.85;;;;;;;;;;2309462;58;21067;-83
2022/08/18 06:38:51;;;;;;;12.65;9.48;;;;;;;;;;2309998;58;21122;-83
2022/08/18 06:41:20;;;;;;;13.35;11.20;;;;;;;;;;2549314;54;21084;-83
2022/08/18 06:43:57;;;;;;;13.88;11.18;;;;;;;;;;2309794;58;21133;-83
2022/08/18 06:46:28;;;;;;;15.18;11.18;;;;;;;;;;2309539;58;21094;-82
2022/08/18 06:48:59;;;;;;;15.80;11.43;;;;;;;;;;2309830;58;21638;-83
2022/08/18 06:51:28;;;;;;;14.77;11.05;;;;;;;;;;2310528;58;21115;-83
2022/08/18 06:53:57;;;;;;;13.35;11.68;;;;;;;;;;2549611;54;21118;-83
2022/08/18 06:56:25;;;;;;;14.38;12.52;;;;;;;;;;2309670;58;21056;-83
2022/08/18 06:58:54;;;;;;;13.80;11.85;;;;;;;;;;2310516;58;21155;-83
2022/08/18 07:01:21;;;;;;;15.88;11.07;;;;;;;;;;2310392;58;21206;-83
2022/08/18 07:03:50;;;;;;;14.02;11.80;;;;;;;;;;2310481;58;21122;-83
2022/08/18 07:06:37;;;;;;;14.80;11.65;;;;;;;;;;2308965;58;21134;-82
2022/08/18 07:09:22;;;;;;;15.15;11.82;;;;;;;;;;2308956;58;21122;-82
2022/08/18 07:12:00;;;;;;;15.20;12.57;;;;;;;;;;2309762;58;21067;-83
2022/08/18 07:14:27;;;;;;;14.45;11.52;;;;;;;;;;2309248;58;21623;-84
2022/08/18 07:17:06;;;;;;;14.52;11.18;;;;;;;;;;2547636;54;21087;-82
2022/08/18 07:19:33;;;;;;;15.80;12.00;;;;;;;;;;2309094;58;21241;-83
2022/08/18 07:22:02;;;;;;;15.15;12.57;;;;;;;;;;2309441;58;21056;-83
2022/08/18 07:24:31;;;;;;;17.25;12.40;;;;;;;;;;2309326;58;21672;-83
2022/08/18 07:26:59;;;;;;;21.42;13.18;;;;;;;;;;2309116;58;21051;-83
2022/08/18 07:29:26;;;;;;;18.12;15.38;;;;;;;;;;2548104;53;21119;-83
2022/08/18 07:31:54;;;;;;;16.27;13.18;;;;;;;;;;2548244;54;21059;-83
2022/08/18 07:34:24;;;;;;;16.73;13.57;;;;;;;;;;2309620;58;21115;-83
2022/08/18 07:36:54;;;;;;;19.25;14.15;;;;;;;;;;2309194;58;21047;-83
2022/08/18 07:39:23;;;;;;;18.27;14.50;;;;;;;;;;2309346;58;21107;-83
2022/08/18 07:41:52;;;;;;;21.67;16.30;;;;;;;;;;2309385;58;21131;-84
2022/08/18 07:44:21;;;;;;;22.27;15.63;;;;;;;;;;2548228;54;21039;-83
2022/08/18 07:46:51;;;;;;;19.83;15.18;;;;;;;;;;2547836;54;21098;-83
2022/08/18 07:49:20;;;;;;;17.60;15.23;;;;;;;;;;2308953;58;21059;-83
2022/08/18 07:51:49;;;;;;;20.45;16.35;;;;;;;;;;2309061;58;21126;-82
2022/08/18 07:54:21;;;;;;;21.40;18.40;;;;;;;;;;2308461;58;21150;-84
2022/08/18 07:56:51;;;;;;;20.17;16.60;;;;;;;;;;2308409;58;21084;-83
2022/08/18 07:59:24;;;;;;;23.75;17.20;;;;;;;;;;2547517;53;21158;-83
2022/08/18 08:01:55;;;;;;;22.30;16.02;;;;;;;;;;2308738;58;21615;-83
2022/08/18 08:04:35;;;;;;;19.37;16.98;;;;;;;;;;2308394;58;21103;-82
2022/08/18 08:07:04;;;;;;;24.05;19.50;;;;;;;;;;2308480;58;21555;-82
2022/08/18 08:09:36;;;;;;;27.48;22.17;;;;;;;;;;2548086;54;21055;-82
2022/08/18 08:12:08;;;;;;;26.25;22.30;;;;;;;;;;2309373;58;21707;-83
2022/08/18 08:14:40;;;;;;;31.90;24.83;;;;;;;;;;2309652;58;21592;-81
2022/08/18 08:17:12;;;;;;;29.73;24.37;;;;;;;;;;2308993;58;21068;-82
2022/08/18 08:19:51;;;;;;;32.45;23.73;;;;;;;;;;2308741;58;21716;-82
2022/08/18 08:22:20;;;;;;;30.62;22.75;;;;;;;;;;2308258;58;21067;-82
2022/08/18 08:24:50;;;;;;;37.45;25.40;;;;;;;;;;2308612;58;21158;-81
2022/08/18 08:27:24;;;;;;;34.25;24.23;;;;;;;;;;2308491;58;21071;-81
2022/08/18 08:29:54;;;;;;;35.90;25.25;;;;;;;;;;2309151;58;21592;-81
2022/08/18 08:32:24;;;;;;;35.03;24.58;;;;;;;;;;2308370;58;21075;-82
2022/08/18 08:34:52;;;;;;;42.85;27.83;;;;;;;;;;2547401;54;21055;-81
2022/08/18 08:37:22;;;;;;;38.10;24.40;;;;;;;;;;2308143;58;21075;-81
2022/08/18 08:39:54;;;;;;;39.17;25.40;;;;;;;;;;2307442;58;21595;-81
2022/08/18 08:42:23;;;;;;;44.35;26.62;;;;;;;;;;2308564;58;21146;-82
2022/08/18 08:44:52;;;;;;;41.97;27.25;;;;;;;;;;2308515;58;21651;-81
2022/08/18 08:47:21;;;;;;;47.80;28.73;;;;;;;;;;2546712;54;21040;-81
2022/08/18 08:49:52;;;;;;;41.80;26.75;;;;;;;;;;2308293;58;21115;-81
2022/08/18 08:52:22;;;;;;;42.28;26.02;;;;;;;;;;2308497;58;21615;-81
2022/08/18 08:54:52;;;;;;;44.03;27.30;;;;;;;;;;2307452;58;21107;-81
2022/08/18 08:57:21;;;;;;;42.47;26.98;;;;;;;;;;2306868;58;21067;-81
2022/08/18 08:59:50;;;;;;;44.50;27.48;;;;;;;;;;2307186;58;21067;-82
2022/08/18 09:02:28;;;;;;;43.70;27.58;;;;;;;;;;2306686;58;21146;-81
2022/08/18 09:04:57;;;;;;;40.20;25.95;;;;;;;;;;2549707;54;21063;-83
2022/08/18 09:07:32;;;;;;;40.30;25.73;;;;;;;;;;2310926;58;21595;-83
2022/08/18 09:10:07;;;;;;;36.28;23.87;;;;;;;;;;2311598;58;21071;-82
2022/08/18 09:12:42;;;;;;;33.30;23.65;;;;;;;;;;2311548;58;21056;-82
2022/08/18 09:15:27;;;;;;;37.42;25.77;;;;;;;;;;2311079;58;21067;-80
2022/08/18 09:18:07;;;;;;;36.85;24.77;;;;;;;;;;2311807;58;21181;-82
2022/08/18 09:20:43;;;;;;;39.72;24.63;;;;;;;;;;2550548;54;21043;-82
2022/08/18 09:23:16;;;;;;;36.75;25.33;;;;;;;;;;2550532;54;21112;-83
2022/08/18 09:25:43;;;;;;;;;;;;;;;;;;2553680;54;21136;-82
2022/08/18 09:28:11;;;;;;;32.33;21.35;;;;;;;;;;2311474;58;20108;-82
2022/08/18 09:30:53;;;;;;;41.47;25.05;;;;;;;;;;2311008;58;21095;-83
2022/08/18 09:33:24;;;;;;;45.33;26.77;;;;;;;;;;2311602;58;21178;-82
2022/08/18 09:35:58;;;;;;;44.63;27.33;;;;;;;;;;2550097;54;21067;-82
2022/08/18 09:41:31;;;;;;;40.88;23.67;;;;;;;;;;2310867;58;21091;-81
2022/08/18 09:44:09;;;;;;;48.90;27.27;;;;;;;;;;2311399;58;21054;-81
2022/08/18 09:46:53;;;;;;;43.95;25.75;;;;;;;;;;2310573;58;21055;-82
2022/08/18 09:49:52;;;;;;;42.90;23.92;;;;;;;;;;2309981;58;21044;-81
2022/08/18 09:52:37;;;;;;;42.13;24.58;;;;;;;;;;2497424;54;21154;-82
2022/08/18 09:55:35;;;;;;;43.92;25.30;;;;;;;;;;2309997;58;21832;-82
2022/08/18 09:58:14;;;;;;;36.55;22.02;;;;;;;;;;2550381;54;22454;-81
2022/08/18 10:00:41;;;;;;;37.08;22.75;;;;;;;;;;2311714;58;21636;-81
2022/08/18 10:03:24;;;;;;;40.63;24.25;;;;;;;;;;2311872;58;21139;-82
2022/08/18 10:06:03;;;;;;;37.42;22.00;;;;;;;;;;2311415;58;21115;-81
2022/08/18 10:08:52;;;;;;;35.38;21.23;;;;;;;;;;2550178;54;21127;-82
2022/08/18 10:11:27;;;;;;;39.00;21.08;;;;;;;;;;2537238;54;21087;-80
2022/08/18 10:14:02;;;;;;;33.50;19.50;;;;;;;;;;2311604;58;21186;-81
2022/08/18 10:16:34;;;;;;;33.60;22.10;;;;;;;;;;2309159;58;21056;-82
2022/08/18 10:19:07;;;;;;;31.87;19.83;;;;;;;;;;2310086;58;21063;-83
2022/08/18 10:21:53;;;;;;;29.83;19.85;;;;;;;;;;2549304;54;21642;-81
2022/08/18 10:24:20;;;;;;;30.98;19.12;;;;;;;;;;2549738;54;21176;-81
2022/08/18 10:27:14;;;;;;;27.42;18.85;;;;;;;;;;2310302;58;21202;-81
2022/08/18 10:29:59;;;;;;;34.03;20.80;;;;;;;;;;2549910;54;21111;-80
2022/08/18 10:32:45;;;;;;;31.83;19.65;;;;;;;;;;2311080;58;21063;-82
2022/08/18 10:35:30;;;;;;;28.75;19.50;;;;;;;;;;2310930;58;21094;-81
2022/08/18 10:37:57;;;;;;;28.10;19.40;;;;;;;;;;2310820;58;21080;-81
2022/08/18 10:40:24;;;;;;;28.65;19.02;;;;;;;;;;2549537;53;21590;-81
2022/08/18 10:42:53;;;;;;;31.55;18.67;;;;;;;;;;2310786;58;21102;-82
2022/08/18 10:45:23;;;;;;;26.00;18.50;;;;;;;;;;2310189;58;21067;-81
2022/08/18 10:47:59;;;;;;;30.25;20.83;;;;;;;;;;2310079;58;21043;-81
2022/08/18 10:50:28;;;;;;;31.73;20.02;;;;;;;;;;2548928;53;21159;-80
2022/08/18 10:53:00;;;;;;;28.17;18.08;;;;;;;;;;2309805;58;21103;-81
2022/08/18 10:55:51;;;;;;;31.37;20.90;;;;;;;;;;2310287;58;21202;-81
2022/08/18 10:58:29;;;;;;;30.88;20.70;;;;;;;;;;2310700;58;21127;-81
2022/08/18 11:01:18;;;;;;;26.87;18.75;;;;;;;;;;2549480;54;21092;-80
2022/08/18 11:04:06;;;;;;;33.13;20.08;;;;;;;;;;2531679;54;21054;-81
2022/08/18 11:06:40;;;;;;;26.45;18.50;;;;;;;;;;2548227;54;21139;-81
2022/08/18 11:09:08;;;;;;;27.65;19.73;;;;;;;;;;2309837;58;21084;-81
2022/08/18 11:11:36;;;;;;;30.15;21.17;;;;;;;;;;2309589;58;21110;-80
2022/08/18 11:14:10;;;;;;;29.77;21.15;;;;;;;;;;2309028;58;21678;-81
2022/08/18 11:16:44;;;;;;;34.95;23.75;;;;;;;;;;2547474;54;21128;-80
2022/08/18 11:19:13;;;;;;;32.50;21.95;;;;;;;;;;2310305;58;21123;-80
2022/08/18 11:21:41;;;;;;;28.85;21.73;;;;;;;;;;2310328;58;21059;-80
2022/08/18 11:24:10;;;;;;;28.70;21.73;;;;;;;;;;2548914;54;21087;-80
2022/08/18 11:26:40;;;;;;;28.05;21.25;;;;;;;;;;2310001;58;21103;-80
2022/08/18 11:29:21;;;;;;;28.73;22.52;;;;;;;;;;2310191;58;21142;-81
2022/08/18 11:31:49;;;;;;;26.12;20.10;;;;;;;;;;2310334;58;21072;-80
2022/08/18 11:34:18;;;;;;;28.30;21.87;;;;;;;;;;2547868;54;21059;-80
2022/08/18 11:36:56;;;;;;;25.77;19.92;;;;;;;;;;2309609;58;21642;-81
2022/08/18 11:39:23;;;;;;;30.88;23.08;;;;;;;;;;2310433;58;21079;-80
2022/08/18 11:41:50;;;;;;;29.85;22.08;;;;;;;;;;2548791;54;21071;-81
2022/08/18 11:44:19;;;;;;;25.77;18.95;;;;;;;;;;2309801;58;21067;-81
2022/08/18 11:46:46;;;;;;;26.45;20.50;;;;;;;;;;2547959;54;21651;-81
2022/08/18 11:49:16;;;;;;;25.67;20.52;;;;;;;;;;2547122;54;21056;-81
2022/08/18 11:51:54;;;;;;;24.92;20.67;;;;;;;;;;2548125;54;21607;-81
2022/08/18 11:54:23;;;;;;;26.37;21.85;;;;;;;;;;2548224;54;21079;-81
2022/08/18 11:56:50;;;;;;;22.80;19.67;;;;;;;;;;2308920;58;21615;-81
2022/08/18 11:59:32;;;;;;;27.42;20.33;;;;;;;;;;2563599;53;22209;-83
2022/08/18 12:01:59;;;;;;;28.35;23.10;;;;;;;;;;2364030;57;21581;-83
2022/08/18 12:04:30;;;;;;;24.37;18.87;;;;;;;;;;2614140;53;21050;-85
2022/08/18 12:07:02;;;;;;;26.42;20.50;;;;;;;;;;2613273;53;21037;-84
2022/08/18 12:09:33;;;;;;;25.63;20.13;;;;;;;;;;2375851;56;21106;-84
2022/08/18 12:12:01;;;;;;;24.37;19.37;;;;;;;;;;2391202;56;21564;-84
2022/08/18 12:14:30;;;;;;;22.92;18.00;;;;;;;;;;2391722;56;21172;-84
2022/08/18 12:16:57;;;;;;;22.55;18.15;;;;;;;;;;2390926;56;21051;-84
2022/08/18 12:19:26;;;;;;;18.77;15.85;;;;;;;;;;2648088;52;21051;-84
2022/08/18 12:21:55;;;;;;;22.35;16.37;;;;;;;;;;2648170;52;21086;-84
2022/08/18 12:24:22;;;;;;;21.92;15.55;;;;;;;;;;2648165;52;21109;-84
2022/08/18 12:26:49;;;;;;;24.15;17.80;;;;;;;;;;2390936;56;21122;-84
2022/08/18 12:29:17;;;;;;;20.17;17.00;;;;;;;;;;2391429;56;21654;-84
2022/08/18 12:31:44;;;;;;;18.75;15.07;;;;;;;;;;2648601;52;21111;-84
2022/08/18 12:34:11;;;;;;;19.67;13.77;;;;;;;;;;2649125;52;21383;-83
2022/08/18 12:36:38;;;;;;;19.92;15.05;;;;;;;;;;2648472;52;21019;-84
2022/08/18 12:39:06;;;;;;;16.23;13.93;;;;;;;;;;2648778;52;21043;-84
2022/08/18 12:41:33;;;;;;;17.02;13.07;;;;;;;;;;2648121;52;21534;-84
2022/08/18 12:44:00;;;;;;;17.23;15.40;;;;;;;;;;2391607;56;21161;-84
2022/08/18 12:46:27;;;;;;;17.50;14.00;;;;;;;;;;2647792;52;21134;-84
2022/08/18 12:48:54;;;;;;;19.87;15.77;;;;;;;;;;2391541;56;22617;-84
2022/08/18 12:51:21;;;;;;;18.12;15.13;;;;;;;;;;2648298;52;21643;-83
2022/08/18 12:53:49;;;;;;;21.87;18.48;;;;;;;;;;2648821;52;21051;-84
2022/08/18 12:56:19;;;;;;;16.58;14.52;;;;;;;;;;2390446;56;21158;-84
2022/08/18 12:58:47;;;;;;;23.90;16.23;;;;;;;;;;2391666;56;21110;-84
2022/08/18 13:01:14;;;;;;;17.70;14.20;;;;;;;;;;2648818;52;21043;-84
2022/08/18 13:03:40;;;;;;;15.15;13.52;;;;;;;;;;2648537;52;21055;-84
2022/08/18 13:06:08;;;;;;;15.05;12.57;;;;;;;;;;2391630;56;21779;-84
2022/08/18 13:08:35;;;;;;;13.38;11.32;;;;;;;;;;2392554;56;21041;-84
2022/08/18 13:11:02;;;;;;;12.85;10.18;;;;;;;;;;2392083;56;21058;-84
2022/08/18 13:13:29;;;;;;;11.43;10.23;;;;;;;;;;2392273;56;21038;-84
2022/08/18 13:15:56;;;;;;;13.48;10.50;;;;;;;;;;2648988;52;21094;-83
2022/08/18 13:18:23;;;;;;;13.57;9.88;;;;;;;;;;2392445;56;21105;-84
2022/08/18 13:20:50;;;;;;;10.70;9.60;;;;;;;;;;2392713;56;21035;-83
2022/08/18 13:23:17;;;;;;;9.73;8.15;;;;;;;;;;2648122;52;21034;-84
2022/08/18 13:25:44;;;;;;;10.65;8.73;;;;;;;;;;2648062;52;21059;-83
2022/08/18 13:28:12;;;;;;;9.30;8.07;;;;;;;;;;2390941;56;21050;-84
2022/08/18 13:30:40;;;;;;;9.60;7.82;;;;;;;;;;2391513;56;21162;-84
2022/08/18 13:33:07;;;;;;;10.43;8.55;;;;;;;;;;2648580;52;21031;-84
2022/08/18 13:35:34;;;;;;;10.65;7.43;;;;;;;;;;2648206;52;21614;-84
2022/08/18 13:38:02;;;;;;;10.25;8.88;;;;;;;;;;2648489;52;21651;-84
2022/08/18 13:40:29;;;;;;;9.88;8.23;;;;;;;;;;2648350;52;21054;-84
2022/08/18 13:42:57;;;;;;;10.63;9.55;;;;;;;;;;2648532;52;21099;-84
2022/08/18 13:45:24;;;;;;;11.45;9.82;;;;;;;;;;2648762;52;21035;-83
2022/08/18 13:47:52;;;;;;;10.90;9.65;;;;;;;;;;2648813;52;21074;-84
2022/08/18 13:50:19;;;;;;;9.23;8.20;;;;;;;;;;2648322;52;21098;-84
2022/08/18 13:52:46;;;;;;;10.23;8.75;;;;;;;;;;2392296;56;21090;-85
2022/08/18 13:55:14;;;;;;;9.88;7.78;;;;;;;;;;2391424;56;21629;-85
2022/08/18 13:57:47;;;;;;;8.50;7.43;;;;;;;;;;2391487;56;21583;-84
2022/08/18 14:00:15;;;;;;;9.80;8.27;;;;;;;;;;2391816;56;21039;-84
2022/08/18 14:02:42;;;;;;;9.38;6.72;;;;;;;;;;2391783;56;21046;-84
2022/08/18 14:05:09;;;;;;;8.23;6.85;;;;;;;;;;2392008;56;21527;-84
2022/08/18 14:07:36;;;;;;;8.55;7.53;;;;;;;;;;2390593;56;21063;-84
2022/08/18 14:10:05;;;;;;;8.27;7.47;;;;;;;;;;2391010;56;21547;-84
2022/08/18 14:12:34;;;;;;;9.68;7.72;;;;;;;;;;2391610;56;21054;-85
2022/08/18 14:15:01;;;;;;;10.00;7.78;;;;;;;;;;2648023;52;21083;-85
2022/08/18 14:17:28;;;;;;;8.07;7.28;;;;;;;;;;2391422;56;21047;-84
2022/08/18 14:28:10;;;;;;;11.30;8.27;;;;;;;;;;2391777;56;21085;-85
2022/08/18 14:30:38;;;;;;;10.57;7.72;;;;;;;;;;2648645;52;21043;-85
2022/08/18 14:33:06;;;;;;;9.50;8.43;;;;;;;;;;2392272;56;21050;-85
2022/08/18 14:35:34;;;;;;;8.35;7.55;;;;;;;;;;2648207;52;21513;-85
2022/08/18 14:38:01;;;;;;;10.00;7.80;;;;;;;;;;2648349;52;21015;-85
2022/08/18 14:40:30;;;;;;;9.15;7.80;;;;;;;;;;2391843;56;21086;-85
2022/08/18 14:42:57;;;;;;;11.43;8.43;;;;;;;;;;2391424;56;21119;-85
2022/08/18 14:45:25;;;;;;;9.48;8.05;;;;;;;;;;2391234;56;21046;-85
2022/08/18 14:47:52;;;;;;;7.55;6.78;;;;;;;;;;2391398;56;21039;-86
2022/08/18 14:50:20;;;;;;;9.38;7.90;;;;;;;;;;2391860;56;21107;-85
2022/08/18 14:52:47;;;;;;;8.73;7.53;;;;;;;;;;2647897;52;21051;-85
2022/08/18 14:55:15;;;;;;;13.50;7.68;;;;;;;;;;2390658;56;21063;-85
2022/08/18 14:57:42;;;;;;;10.20;7.97;;;;;;;;;;2389374;56;21078;-85
2022/08/18 15:00:13;;;;;;;7.85;7.10;;;;;;;;;;2646409;52;21170;-83
2022/08/18 15:02:40;;;;;;;8.85;7.95;;;;;;;;;;2646215;52;21039;-82
2022/08/18 15:05:08;;;;;;;8.90;7.97;;;;;;;;;;2646902;52;21038;-83
2022/08/18 15:07:36;;;;;;;10.73;9.10;;;;;;;;;;2646194;52;21680;-83